Time;durP1;ratioP1;P1;durP2;ratioP2;P2;SDS_P1;SDS_P2;PMS_P1;PMS_P2;Temp;Humidity;BMP_temperature;BMP_pressure;BME280_temperature;BME280_humidity;BME280_pressure;Samples;Min_cycle;Max_cycle;Signal;HPM_P1;HPM_P2
2022/08/06 00:00:04;;;;;;;12.80;9.25;;;;;;;19.11;100.00;98542.08;1788815;80;20996;-77
2022/08/06 00:02:32;;;;;;;14.38;8.90;;;;;;;19.12;100.00;98540.16;1785231;80;20984;-78
2022/08/06 00:05:00;;;;;;;14.23;9.30;;;;;;;19.10;100.00;98537.68;1788959;80;20988;-78
2022/08/06 00:07:28;;;;;;;13.35;9.65;;;;;;;19.09;100.00;98548.92;1788801;80;21055;-78
2022/08/06 00:09:56;;;;;;;13.10;9.10;;;;;;;19.09;100.00;98551.66;1788736;80;21506;-78
2022/08/06 00:12:22;;;;;;;14.23;9.30;;;;;;;19.06;100.00;98553.55;1788957;80;20969;-77
2022/08/06 00:14:50;;;;;;;13.40;9.10;;;;;;;19.05;100.00;98557.36;1788422;80;21166;-78
2022/08/06 00:17:18;;;;;;;13.85;9.18;;;;;;;19.04;100.00;98562.58;1788664;80;21454;-77
2022/08/06 00:19:45;;;;;;;16.87;9.40;;;;;;;19.03;100.00;98567.21;1788834;80;21004;-76
2022/08/06 00:22:12;;;;;;;16.55;10.08;;;;;;;19.04;100.00;98562.58;1788122;80;21016;-76
2022/08/06 00:24:39;;;;;;;13.93;9.65;;;;;;;19.06;100.00;98566.69;1788349;80;21063;-78
2022/08/06 00:27:06;;;;;;;17.25;9.95;;;;;;;19.08;100.00;98567.80;1788928;80;21020;-78
2022/08/06 00:29:33;;;;;;;16.17;9.43;;;;;;;19.12;100.00;98570.29;1788705;80;21063;-77
2022/08/06 00:31:59;;;;;;;14.30;9.33;;;;;;;19.14;100.00;98568.11;1788819;80;21056;-76
2022/08/06 00:34:26;;;;;;;14.23;9.63;;;;;;;19.15;100.00;98565.66;1789167;80;21028;-77
2022/08/06 00:36:52;;;;;;;13.75;9.03;;;;;;;19.15;100.00;98567.85;1800658;79;20963;-76
2022/08/06 00:39:19;;;;;;;14.25;8.95;;;;;;;19.16;100.00;98565.96;1817498;79;20998;-77
2022/08/06 00:41:46;;;;;;;16.65;10.30;;;;;;;19.15;100.00;98564.30;1817205;79;20994;-76
2022/08/06 00:44:13;;;;;;;14.85;8.88;;;;;;;19.15;100.00;98569.22;1818860;79;20979;-78
2022/08/06 00:46:41;;;;;;;14.58;9.50;;;;;;;19.14;100.00;98567.59;1817294;79;21507;-78
2022/08/06 00:49:08;;;;;;;16.70;9.30;;;;;;;19.13;100.00;98567.84;1817314;79;21476;-78
2022/08/06 00:51:35;;;;;;;14.63;8.88;;;;;;;19.11;100.00;98567.29;1817044;79;21042;-77
2022/08/06 00:54:02;;;;;;;15.43;8.93;;;;;;;19.08;100.00;98565.88;1817153;79;21014;-78
2022/08/06 00:56:29;;;;;;;13.70;9.20;;;;;;;19.05;100.00;98568.32;1817283;79;21003;-77
2022/08/06 00:58:56;;;;;;;13.03;8.60;;;;;;;19.02;100.00;98572.42;1797404;79;21063;-78
2022/08/06 01:01:23;;;;;;;12.15;8.45;;;;;;;19.00;100.00;98574.61;1794538;80;21000;-78
2022/08/06 01:03:50;;;;;;;12.95;8.75;;;;;;;18.98;100.00;98569.91;1794588;80;20988;-77
2022/08/06 01:06:16;;;;;;;14.25;8.70;;;;;;;18.97;100.00;98571.83;1794579;80;21015;-77
2022/08/06 01:08:43;;;;;;;14.87;9.20;;;;;;;18.96;100.00;98573.45;1794517;80;20992;-77
2022/08/06 01:11:11;;;;;;;14.03;9.13;;;;;;;18.94;100.00;98576.45;1794167;80;21486;-78
2022/08/06 01:13:38;;;;;;;11.93;8.80;;;;;;;18.93;100.00;98572.08;1788775;80;21000;-78
2022/08/06 01:16:33;;;;;;;13.22;9.38;;;;;;;18.90;100.00;98569.86;1751602;81;21037;-77
2022/08/06 01:19:05;;;;;;;11.95;8.88;;;;;;;18.88;100.00;98573.95;1752134;82;21017;-78
2022/08/06 01:22:18;;;;;;;15.45;9.35;;;;;;;18.84;100.00;98573.66;1747741;82;21037;-77
2022/08/06 01:25:11;;;;;;;14.45;9.28;;;;;;;18.79;100.00;98574.39;1719049;83;20994;-77
2022/08/06 01:27:49;;;;;;;11.57;8.70;;;;;;;18.77;100.00;98570.28;1718570;83;21031;-76
2022/08/06 01:30:21;;;;;;;12.05;8.83;;;;;;;18.74;100.00;98571.61;1717992;83;21003;-77
2022/08/06 01:32:56;;;;;;;15.48;9.13;;;;;;;18.75;100.00;98568.31;1718776;83;21065;-77
2022/08/06 01:35:28;;;;;;;11.57;8.60;;;;;;;18.74;100.00;98568.05;1718881;83;20987;-77
2022/08/06 01:38:08;;;;;;;12.93;8.83;;;;;;;18.72;100.00;98573.78;1723668;83;21056;-77
2022/08/06 01:40:37;;;;;;;11.75;8.98;;;;;;;18.72;100.00;98571.05;1724583;83;21420;-77
2022/08/06 01:43:07;;;;;;;11.90;8.50;;;;;;;18.71;100.00;98574.05;1723507;83;21093;-77
2022/08/06 01:45:34;;;;;;;13.65;9.35;;;;;;;18.69;100.00;98578.41;1724663;83;21054;-77
2022/08/06 01:48:08;;;;;;;14.70;9.63;;;;;;;18.68;100.00;98580.03;1724808;83;21086;-77
2022/08/06 01:50:38;;;;;;;13.65;8.98;;;;;;;18.65;100.00;98583.31;1724614;83;21065;-76
2022/08/06 01:53:07;;;;;;;13.45;8.73;;;;;;;18.63;100.00;98589.56;1724645;82;21603;-77
2022/08/06 01:55:41;;;;;;;12.58;9.40;;;;;;;18.60;100.00;98577.23;1724595;83;21086;-77
2022/08/06 01:58:07;;;;;;;14.15;9.05;;;;;;;18.58;100.00;98586.25;1721468;83;21018;-77
2022/08/06 02:00:38;;;;;;;13.98;9.13;;;;;;;18.57;100.00;98590.05;1701665;82;21081;-77
2022/08/06 02:03:17;;;;;;;15.55;9.33;;;;;;;18.56;100.00;98585.13;1752055;82;21566;-76
2022/08/06 02:05:44;;;;;;;15.72;9.68;;;;;;;18.55;100.00;98591.68;1751467;82;21022;-76
2022/08/06 02:08:13;;;;;;;14.35;8.65;;;;;;;18.54;100.00;98586.49;1751801;82;20986;-76
2022/08/06 02:10:40;;;;;;;13.28;9.08;;;;;;;18.55;100.00;98590.86;1752160;82;20974;-77
2022/08/06 02:13:07;;;;;;;12.85;9.05;;;;;;;18.56;100.00;98598.82;1751976;82;21029;-78
2022/08/06 02:15:34;;;;;;;12.63;8.95;;;;;;;18.57;100.00;98594.16;1775009;80;21036;-77
2022/08/06 02:18:02;;;;;;;12.03;8.85;;;;;;;18.56;100.00;98583.77;1785334;80;21024;-76
2022/08/06 02:20:36;;;;;;;13.95;8.83;;;;;;;18.56;100.00;98579.66;1785620;80;21063;-78
2022/08/06 02:23:08;;;;;;;12.80;9.30;;;;;;;18.57;100.00;98584.06;1785617;80;20980;-78
2022/08/06 02:25:39;;;;;;;14.80;9.70;;;;;;;18.58;100.00;98584.88;1689193;85;21047;-78
2022/08/06 02:28:05;;;;;;;12.93;8.80;;;;;;;18.57;100.00;98587.32;1689002;85;21022;-77
2022/08/06 02:30:36;;;;;;;11.75;8.40;;;;;;;18.57;100.00;98587.32;1633580;87;21063;-78
2022/08/06 02:33:05;;;;;;;14.55;9.73;;;;;;;18.58;100.00;98585.70;1688963;85;21010;-77
2022/08/06 02:35:35;;;;;;;14.03;8.83;;;;;;;18.59;100.00;98586.52;1688999;85;21022;-77
2022/08/06 02:38:06;;;;;;;10.98;8.70;;;;;;;18.60;100.00;98585.44;1661299;85;21075;-77
2022/08/06 02:40:40;;;;;;;12.37;9.20;;;;;;;18.62;100.00;98579.71;1657377;87;21602;-77
2022/08/06 02:43:16;;;;;;;13.10;9.20;;;;;;;18.62;100.00;98581.08;1612222;88;21111;-77
2022/08/06 02:45:58;;;;;;;13.95;8.80;;;;;;;18.63;100.00;98586.82;1633036;88;21017;-78
2022/08/06 02:48:32;;;;;;;11.90;9.15;;;;;;;18.64;100.00;98582.46;1633062;88;21053;-77
2022/08/06 02:50:59;;;;;;;15.10;9.75;;;;;;;18.66;100.00;98583.05;1632972;88;21030;-78
2022/08/06 02:53:37;;;;;;;13.08;9.08;;;;;;;18.68;100.00;98580.88;1632875;88;21065;-76
2022/08/06 02:56:10;;;;;;;11.48;8.58;;;;;;;18.70;100.00;98582.81;1595869;89;21074;-78
2022/08/06 02:58:42;;;;;;;;;;;;;;;18.71;100.00;98575.41;1554067;92;21054;-77
2022/08/06 03:01:13;;;;;;;14.90;8.55;;;;;;;18.72;100.00;98575.16;1535629;93;20185;-76
2022/08/06 03:03:42;;;;;;;10.70;8.08;;;;;;;18.72;100.00;98571.60;1521939;94;21136;-77
2022/08/06 03:06:09;;;;;;;16.23;9.80;;;;;;;18.75;100.00;98569.69;1532022;94;21611;-77
2022/08/06 03:08:36;;;;;;;15.50;9.15;;;;;;;18.76;100.00;98572.17;1522143;94;21080;-77
2022/08/06 03:11:02;;;;;;;12.95;8.90;;;;;;;18.79;100.00;98575.77;1518368;94;21126;-77
2022/08/06 03:13:29;;;;;;;13.35;9.00;;;;;;;18.84;100.00;98570.06;1532524;93;21079;-77
2022/08/06 03:15:59;;;;;;;13.88;8.78;;;;;;;18.86;100.00;98571.48;1547374;93;21138;-77
2022/08/06 03:18:26;;;;;;;16.85;9.38;;;;;;;18.90;100.00;98577.26;1534759;93;21088;-77
2022/08/06 03:20:56;;;;;;;10.60;8.00;;;;;;;18.94;100.00;98577.83;1549697;93;21570;-77
2022/08/06 03:23:23;;;;;;;13.48;8.90;;;;;;;19.00;100.00;98573.76;1558662;92;21135;-77
2022/08/06 03:25:49;;;;;;;12.90;8.03;;;;;;;19.04;100.00;98577.65;1575209;91;21121;-75
2022/08/06 03:28:16;;;;;;;14.00;8.65;;;;;;;19.10;100.00;98579.32;1559710;92;21134;-77
2022/08/06 03:30:43;;;;;;;14.98;8.35;;;;;;;19.16;100.00;98583.77;1575090;91;21509;-77
2022/08/06 03:33:14;;;;;;;12.88;8.40;;;;;;;19.23;100.00;98584.89;1540012;92;21068;-77
2022/08/06 03:35:41;;;;;;;14.25;8.85;;;;;;;19.28;100.00;98584.41;1574951;91;21094;-77
2022/08/06 03:38:09;;;;;;;14.35;8.88;;;;;;;19.34;100.00;98584.70;1536706;92;21097;-77
2022/08/06 03:40:37;;;;;;;13.45;8.85;;;;;;;19.40;100.00;98575.15;1592914;89;21130;-76
2022/08/06 03:43:05;;;;;;;11.73;7.95;;;;;;;19.46;100.00;98583.14;1602947;89;21071;-76
2022/08/06 03:45:35;;;;;;;14.00;8.50;;;;;;;19.53;100.00;98575.51;1636314;87;21001;-77
2022/08/06 03:48:03;;;;;;;11.08;8.28;;;;;;;19.62;100.00;98588.70;1606042;89;21027;-76
2022/08/06 03:50:34;;;;;;;13.50;8.40;;;;;;;19.69;100.00;98581.91;1619762;89;21067;-76
2022/08/06 03:53:04;;;;;;;11.65;8.48;;;;;;;19.78;100.00;98583.63;1592708;90;21587;-76
2022/08/06 03:55:35;;;;;;;12.18;8.30;;;;;;;19.86;100.00;98585.84;1619617;89;21071;-77
2022/08/06 03:58:09;;;;;;;10.82;8.10;;;;;;;19.94;100.00;98591.37;1629535;86;21062;-77
2022/08/06 04:00:47;;;;;;;14.55;8.50;;;;;;;20.02;100.00;98589.47;1673078;84;21537;-76
2022/08/06 04:03:14;;;;;;;14.40;9.08;;;;;;;20.08;100.00;98593.90;1693881;84;21018;-75
2022/08/06 04:05:41;;;;;;;13.83;8.23;;;;;;;20.15;100.00;98595.55;1697203;84;21034;-76
2022/08/06 04:08:09;;;;;;;10.53;7.60;;;;;;;20.21;100.00;98601.34;1697208;84;21074;-76
2022/08/06 04:10:43;;;;;;;11.22;8.23;;;;;;;20.28;100.00;98601.36;1697468;84;21030;-75
2022/08/06 04:13:12;;;;;;;14.50;8.40;;;;;;;20.36;100.00;98602.78;1697363;84;21018;-77
2022/08/06 04:15:39;;;;;;;11.65;8.63;;;;;;;20.47;100.00;98615.98;1713702;83;21083;-77
2022/08/06 04:18:16;;;;;;;12.95;8.53;;;;;;;20.59;100.00;98621.20;1739544;82;21352;-76
2022/08/06 04:20:49;;;;;;;13.25;8.33;;;;;;;20.69;100.00;98628.13;1751643;82;21087;-76
2022/08/06 04:23:16;;;;;;;13.38;8.90;;;;;;;20.78;100.00;98631.98;1751986;82;21513;-76
2022/08/06 04:25:51;;;;;;;13.15;8.58;;;;;;;20.90;100.00;98653.71;1751872;82;21009;-76
2022/08/06 04:28:19;;;;;;;13.88;8.95;;;;;;;21.01;100.00;98654.55;1751841;82;20976;-76
2022/08/06 04:30:48;;;;;;;12.53;8.98;;;;;;;21.12;100.00;98670.48;1751839;82;21446;-76
2022/08/06 04:33:18;;;;;;;13.55;9.15;;;;;;;21.18;100.00;98689.47;1751770;82;21521;-77
2022/08/06 04:35:45;;;;;;;13.40;9.85;;;;;;;21.19;100.00;98711.71;1751882;82;21052;-76
2022/08/06 04:38:12;;;;;;;14.90;9.68;;;;;;;21.19;100.00;98737.83;1741578;82;20947;-76
2022/08/06 04:40:39;;;;;;;12.28;9.70;;;;;;;21.21;100.00;98759.55;1740901;82;21504;-76
2022/08/06 04:43:07;;;;;;;15.68;9.88;;;;;;;21.18;100.00;98773.30;1690502;82;21367;-76
2022/08/06 04:45:37;;;;;;;15.45;10.10;;;;;;;21.18;100.00;98794.47;1740912;82;21022;-75
2022/08/06 04:48:05;;;;;;;14.00;9.80;;;;;;;21.21;100.00;98802.15;1740911;82;21699;-76
2022/08/06 04:50:32;;;;;;;16.45;10.50;;;;;;;21.28;100.00;98822.52;1741046;82;20990;-76
2022/08/06 04:53:15;;;;;;;14.80;9.93;;;;;;;21.37;100.00;98833.25;1740931;82;20979;-76
2022/08/06 04:55:43;;;;;;;16.10;10.18;;;;;;;21.48;100.00;98846.50;1598092;90;21176;-78
2022/08/06 04:58:12;;;;;;;16.97;10.88;;;;;;;21.57;100.00;98855.89;1618027;88;21551;-77
2022/08/06 05:00:42;;;;;;;15.98;11.22;;;;;;;21.66;100.00;98863.88;1617581;89;21097;-77
2022/08/06 05:03:08;;;;;;;15.60;10.82;;;;;;;21.74;100.00;98872.98;1618016;89;21073;-78
2022/08/06 05:05:41;;;;;;;16.57;10.93;;;;;;;21.84;100.00;98884.53;1616228;89;21045;-77
2022/08/06 05:08:08;;;;;;;15.15;10.23;;;;;;;21.92;100.00;98892.78;1588162;90;21551;-77
2022/08/06 05:10:41;;;;;;;20.40;12.28;;;;;;;22.00;100.00;98899.13;1619486;87;21033;-77
2022/08/06 05:13:08;;;;;;;;;;;;;;;22.09;100.00;98903.55;1575975;91;21043;-77
2022/08/06 05:15:38;;;;;;;20.65;13.18;;;;;;;22.19;100.00;98904.93;1568205;91;20131;-77
2022/08/06 05:18:18;;;;;;;16.25;11.12;;;;;;;22.30;100.00;98916.80;1560302;92;21066;-77
2022/08/06 05:20:49;;;;;;;26.40;21.65;;;;;;;22.43;100.00;98923.67;1534157;93;21038;-77
2022/08/06 05:23:23;;;;;;;18.95;12.37;;;;;;;22.56;100.00;98932.77;1537683;93;21063;-78
2022/08/06 05:25:50;;;;;;;17.17;10.65;;;;;;;22.73;100.00;98943.47;1561511;91;21135;-79
2022/08/06 05:28:17;;;;;;;16.17;11.20;;;;;;;22.89;100.00;98951.16;1562088;91;21149;-77
2022/08/06 05:30:48;;;;;;;15.78;10.72;;;;;;;23.03;100.00;98959.11;1561830;92;21058;-79
2022/08/06 05:33:31;;;;;;;15.55;10.60;;;;;;;23.19;100.00;98968.20;1562326;92;21093;-80
2022/08/06 05:35:59;;;;;;;18.75;10.85;;;;;;;23.33;100.00;98976.70;1561355;92;21129;-78
2022/08/06 05:38:27;;;;;;;14.75;10.55;;;;;;;23.49;100.00;98979.67;1542480;93;21077;-78
2022/08/06 05:40:56;;;;;;;17.27;10.90;;;;;;;23.65;100.00;98986.52;1542028;93;21098;-77
2022/08/06 05:43:23;;;;;;;18.82;10.08;;;;;;;23.78;100.00;98998.86;1541373;93;21659;-78
2022/08/06 05:45:53;;;;;;;17.95;12.70;;;;;;;23.88;100.00;99014.84;1541442;93;21090;-78
2022/08/06 05:48:20;;;;;;;18.35;12.90;;;;;;;24.00;100.00;99028.88;1540628;93;21126;-78
2022/08/06 05:50:52;;;;;;;17.37;11.90;;;;;;;24.13;100.00;99031.00;1553201;89;21602;-79
2022/08/06 05:53:26;;;;;;;23.15;16.00;;;;;;;24.25;100.00;99033.42;1611478;89;21074;-79
2022/08/06 05:56:00;;;;;;;19.77;15.05;;;;;;;24.40;100.00;99044.38;1531774;92;21131;-77
2022/08/06 05:58:37;;;;;;;81.12;69.58;;;;;;;24.59;100.00;99043.15;1556025;91;21040;-75
2022/08/06 06:01:05;;;;;;;19.98;13.95;;;;;;;24.75;100.00;99053.53;1596792;89;21032;-78
2022/08/06 06:03:32;;;;;;;19.85;11.48;;;;;;;24.87;100.00;99065.60;1618379;88;21087;-78
2022/08/06 06:06:00;;;;;;;15.95;10.95;;;;;;;24.92;100.00;99075.24;1618007;89;21088;-78
2022/08/06 06:08:27;;;;;;;18.17;12.55;;;;;;;24.92;100.00;99089.63;1618162;89;21123;-76
2022/08/06 06:10:54;;;;;;;20.90;12.10;;;;;;;24.88;100.00;99096.83;1651387;87;21111;-78
2022/08/06 06:13:23;;;;;;;14.65;10.00;;;;;;;24.87;100.00;99108.45;1651401;87;21122;-77
2022/08/06 06:15:58;;;;;;;15.72;10.93;;;;;;;24.95;100.00;99102.32;1679458;85;21089;-79
2022/08/06 06:18:48;;;;;;;15.05;9.05;;;;;;;25.10;100.00;99101.92;1675306;85;21038;-78
2022/08/06 06:21:53;;;;;;;13.85;9.45;;;;;;;25.27;100.00;99105.12;1664788;85;20983;-78
2022/08/06 06:24:36;;;;;;;14.25;9.40;;;;;;;25.52;100.00;99103.22;1658863;86;21038;-77
2022/08/06 06:27:15;;;;;;;16.53;10.17;;;;;;;25.80;100.00;99126.98;1658665;86;21034;-77
2022/08/06 06:29:53;;;;;;;22.40;14.50;;;;;;;25.87;100.00;99168.45;1644633;87;21074;-78
2022/08/06 06:32:44;;;;;;;29.37;26.30;;;;;;;25.93;100.00;99181.13;1658144;86;21081;-76
2022/08/06 06:35:19;;;;;;;19.02;11.75;;;;;;;26.10;100.00;99199.22;1657760;86;21012;-79
2022/08/06 06:38:09;;;;;;;14.83;10.10;;;;;;;26.27;100.00;99197.38;1694242;84;21532;-76
2022/08/06 06:40:51;;;;;;;14.60;8.88;;;;;;;26.46;100.00;99205.73;1691946;84;21716;-76
2022/08/06 06:43:40;;;;;;;13.80;8.93;;;;;;;26.56;100.00;99221.40;1660695;86;21543;-77
2022/08/06 06:46:19;;;;;;;13.90;9.00;;;;;;;26.60;100.00;99240.49;1661010;86;21085;-74
2022/08/06 06:49:00;;;;;;;13.55;9.00;;;;;;;26.77;100.00;99228.92;1599626;89;20994;-72
2022/08/06 06:51:34;;;;;;;14.65;10.18;;;;;;;26.95;100.00;99243.38;1561921;89;21079;-75
2022/08/06 06:54:00;;;;;;;16.52;11.57;;;;;;;27.17;100.00;99251.66;1591125;89;21155;-74
2022/08/06 06:56:31;;;;;;;17.50;11.15;;;;;;;27.35;100.00;99250.02;1590956;89;21158;-73
2022/08/06 06:59:04;;;;;;;12.20;8.50;;;;;;;27.55;100.00;99262.73;1591043;90;21066;-73
2022/08/06 07:01:32;;;;;;;11.93;7.87;;;;;;;27.68;100.00;99292.52;1616762;89;21117;-74
2022/08/06 07:04:00;;;;;;;11.70;8.18;;;;;;;27.76;100.00;99324.32;1595821;89;21241;-72
2022/08/06 07:06:27;;;;;;;13.08;8.63;;;;;;;27.81;100.00;99331.19;1590635;90;21118;-74
2022/08/06 07:08:53;;;;;;;13.38;8.43;;;;;;;27.83;100.00;99346.44;1591803;90;21252;-74
2022/08/06 07:11:23;;;;;;;12.03;7.72;;;;;;;27.90;100.00;99353.55;1616413;89;21030;-75
2022/08/06 07:13:50;;;;;;;20.68;10.23;;;;;;;27.91;100.00;99358.83;1590663;90;21073;-73
2022/08/06 07:16:22;;;;;;;19.62;9.60;;;;;;;27.84;100.00;99387.53;1607484;89;21521;-73
2022/08/06 07:18:50;;;;;;;15.73;9.20;;;;;;;27.82;100.00;99372.55;1619891;89;21000;-73
2022/08/06 07:21:18;;;;;;;12.10;8.50;;;;;;;27.94;100.00;99370.73;1619967;89;21066;-72
2022/08/06 07:23:48;;;;;;;12.30;8.40;;;;;;;28.10;100.00;99381.03;1620127;89;21051;-73
2022/08/06 07:26:15;;;;;;;11.38;7.78;;;;;;;28.32;100.00;99388.70;1619662;89;21010;-73
2022/08/06 07:28:42;;;;;;;10.43;8.25;;;;;;;28.54;100.00;99389.46;1597009;89;21054;-73
2022/08/06 07:31:09;;;;;;;11.40;8.08;;;;;;;28.69;100.00;99411.98;1619715;89;21039;-73
2022/08/06 07:33:39;;;;;;;14.83;10.70;;;;;;;28.71;100.00;99436.13;1619861;89;21062;-75
2022/08/06 07:36:07;;;;;;;14.78;10.43;;;;;;;28.74;100.00;99433.32;1620003;89;21038;-74
2022/08/06 07:38:39;;;;;;;18.17;11.10;;;;;;;28.70;100.00;99433.66;1619859;89;21063;-75
2022/08/06 07:41:06;;;;;;;15.00;9.65;;;;;;;28.64;100.00;99432.11;1619889;89;20984;-75
2022/08/06 07:43:38;;;;;;;18.12;9.45;;;;;;;28.52;100.00;99452.02;1619229;89;21000;-76
2022/08/06 07:46:06;;;;;;;15.60;9.30;;;;;;;28.44;100.00;99444.37;1648336;86;21500;-76
2022/08/06 07:48:39;;;;;;;12.75;9.03;;;;;;;28.46;100.00;99456.04;1655891;84;21143;-74
2022/08/06 07:51:05;;;;;;;15.63;10.05;;;;;;;28.52;100.00;99454.81;1655937;87;21067;-73
2022/08/06 07:53:34;;;;;;;17.37;10.48;;;;;;;28.67;100.00;99449.01;1647921;87;21074;-72
2022/08/06 07:56:06;;;;;;;17.25;10.30;;;;;;;28.87;100.00;99449.19;1625889;86;21138;-73
2022/08/06 07:58:34;;;;;;;19.48;12.73;;;;;;;29.12;100.00;99464.55;1648318;87;21043;-74
2022/08/06 08:01:01;;;;;;;16.05;9.90;;;;;;;29.35;100.00;99476.65;1647337;87;21011;-77
2022/08/06 08:06:17;;;;;;;15.80;10.25;;;;;;;29.71;100.00;99495.95;1653323;87;21047;-77
2022/08/06 08:08:45;;;;;;;16.50;9.78;;;;;;;29.96;100.00;99521.09;1651320;87;21648;-76
2022/08/06 08:11:15;;;;;;;15.32;9.68;;;;;;;30.12;100.00;99527.14;1648826;87;21051;-74
2022/08/06 08:13:42;;;;;;;16.23;10.98;;;;;;;30.26;100.00;99540.47;1647010;87;21106;-73
2022/08/06 08:16:13;;;;;;;17.55;12.50;;;;;;;30.39;100.00;99541.58;1689974;84;21044;-74
2022/08/06 08:18:40;;;;;;;20.37;14.13;;;;;;;30.56;100.00;99551.22;1702025;84;21599;-74
2022/08/06 08:21:07;;;;;;;36.08;28.07;;;;;;;30.72;100.00;99555.84;1688312;84;20994;-75
2022/08/06 08:23:34;;;;;;;21.73;14.83;;;;;;;30.89;100.00;99553.76;1677927;84;21023;-75
2022/08/06 08:26:02;;;;;;;15.55;10.05;;;;;;;31.09;100.00;99578.36;1684418;84;21019;-74
2022/08/06 08:28:30;;;;;;;13.62;8.98;;;;;;;31.19;100.00;99582.87;1673170;84;21179;-73
2022/08/06 08:30:58;;;;;;;15.05;9.13;;;;;;;31.38;100.00;99583.45;1672930;84;21560;-72
2022/08/06 08:33:25;;;;;;;14.20;9.73;;;;;;;31.59;100.00;99584.33;1676992;84;21038;-73
2022/08/06 08:35:52;;;;;;;15.78;9.18;;;;;;;31.80;100.00;99602.70;1673788;86;21038;-74
2022/08/06 08:38:20;;;;;;;17.62;10.45;;;;;;;31.94;100.00;99620.75;1680256;84;21026;-74
2022/08/06 08:40:48;;;;;;;15.55;9.05;;;;;;;32.02;100.00;99637.33;1684477;84;21114;-73
2022/08/06 08:43:32;;;;;;;19.95;9.90;;;;;;;32.09;100.00;99665.66;1719220;82;21053;-74
2022/08/06 08:46:02;;;;;;;13.22;9.25;;;;;;;32.09;100.00;99680.46;1737108;82;21085;-73
2022/08/06 08:48:29;;;;;;;13.72;8.68;;;;;;;32.07;100.00;99693.13;1735331;82;21555;-73
2022/08/06 08:50:58;;;;;;;12.90;9.13;;;;;;;32.12;100.00;99693.80;1747045;82;21009;-73
2022/08/06 08:53:36;;;;;;;15.25;8.95;;;;;;;32.25;100.00;99694.01;1746470;81;21124;-72
2022/08/06 08:56:03;;;;;;;15.32;10.93;;;;;;;32.45;100.00;99701.77;1720932;83;21046;-73
2022/08/06 08:58:31;;;;;;;15.18;9.68;;;;;;;32.69;100.00;99705.56;1706153;83;21141;-74
2022/08/06 09:00:59;;;;;;;10.93;8.38;;;;;;;32.90;100.00;99726.73;1666593;86;21097;-74
2022/08/06 09:03:26;;;;;;;13.53;9.40;;;;;;;33.00;100.00;99738.17;1666315;86;21106;-73
2022/08/06 09:05:53;;;;;;;13.72;9.58;;;;;;;33.05;100.00;99742.80;1674122;85;20971;-75
2022/08/06 09:08:20;;;;;;;17.35;9.98;;;;;;;33.18;100.00;99737.62;1654997;86;21091;-75
2022/08/06 09:10:47;;;;;;;13.75;9.23;;;;;;;33.32;100.00;99746.45;1642689;87;21042;-74
2022/08/06 09:13:14;;;;;;;13.10;9.33;;;;;;;33.41;100.00;99748.06;1641914;87;21138;-73
2022/08/06 09:15:41;;;;;;;12.18;8.95;;;;;;;33.45;100.00;99768.69;1650378;84;21003;-73
2022/08/06 09:18:08;;;;;;;14.20;9.25;;;;;;;33.42;100.00;99768.53;1678259;84;21086;-71
2022/08/06 09:20:35;;;;;;;13.58;9.18;;;;;;;33.31;100.00;99772.25;1678865;85;21046;-72
2022/08/06 09:23:03;;;;;;;14.03;9.00;;;;;;;33.19;100.00;99764.49;1678498;85;21504;-73
2022/08/06 09:25:40;;;;;;;14.78;9.28;;;;;;;33.09;100.00;99771.78;1678594;85;21006;-73
2022/08/06 09:28:31;;;;;;;16.25;9.95;;;;;;;32.92;100.00;99767.83;1678659;85;21173;-74
2022/08/06 09:31:08;;;;;;;20.52;15.03;;;;;;;32.77;100.00;99750.68;1681759;85;21006;-72
2022/08/06 09:33:39;;;;;;;14.18;8.73;;;;;;;32.66;100.00;99755.19;1680879;85;20983;-72
2022/08/06 09:36:09;;;;;;;16.02;9.35;;;;;;;32.64;100.00;99754.69;1667504;86;21007;-72
2022/08/06 09:38:55;;;;;;;14.30;9.65;;;;;;;32.69;100.00;99766.31;1597705;89;21083;-72
2022/08/06 09:41:23;;;;;;;15.28;9.43;;;;;;;32.76;100.00;99771.41;1592890;89;21106;-73
2022/08/06 09:43:52;;;;;;;14.73;10.28;;;;;;;32.75;100.00;99775.38;1600766;89;21015;-73
2022/08/06 09:46:39;;;;;;;16.67;9.85;;;;;;;32.78;100.00;99778.34;1600994;89;21010;-73
2022/08/06 09:49:07;;;;;;;12.68;9.70;;;;;;;32.86;100.00;99777.52;1594477;90;21047;-72
2022/08/06 09:51:37;;;;;;;12.33;8.65;;;;;;;33.01;100.00;99783.83;1596244;90;21055;-73
2022/08/06 09:54:06;;;;;;;13.62;9.10;;;;;;;33.17;100.00;99787.00;1583479;90;21090;-72
2022/08/06 09:56:34;;;;;;;13.13;8.20;;;;;;;33.33;100.00;99793.75;1583950;89;21749;-75
2022/08/06 09:59:06;;;;;;;12.73;8.93;;;;;;;33.44;100.00;99788.63;1564281;90;21057;-74
2022/08/06 10:01:42;;;;;;;14.20;7.97;;;;;;;33.48;100.00;99793.81;1549773;92;21014;-73
2022/08/06 10:04:14;;;;;;;12.60;8.63;;;;;;;33.52;100.00;99785.56;1557103;92;21162;-74
2022/08/06 10:06:55;;;;;;;;;;;;;;;33.61;100.00;99785.81;1577691;90;21052;-74
2022/08/06 10:09:24;;;;;;;12.77;7.67;;;;;;;33.85;100.00;99776.05;1572462;90;20138;-74
2022/08/06 10:11:51;;;;;;;15.88;9.50;;;;;;;34.02;100.00;99803.23;1592099;90;21605;-73
2022/08/06 10:14:32;;;;;;;15.35;8.55;;;;;;;34.09;100.00;99825.98;1591975;90;21063;-72
2022/08/06 10:17:13;;;;;;;12.23;8.38;;;;;;;34.09;100.00;99816.17;1536243;93;21137;-74
2022/08/06 10:19:43;;;;;;;11.60;6.92;;;;;;;34.13;100.00;99821.34;1535853;93;21613;-73
2022/08/06 10:22:16;;;;;;;8.53;6.55;;;;;;;34.10;100.00;99829.61;1535893;93;21048;-71
2022/08/06 10:24:49;;;;;;;17.57;11.73;;;;;;;33.97;100.00;99829.47;1535867;93;21183;-73
2022/08/06 10:27:25;;;;;;;12.90;8.35;;;;;;;33.99;100.00;99829.14;1535823;93;21123;-72
2022/08/06 10:29:54;;;;;;;9.93;6.80;;;;;;;34.11;100.00;99823.66;1535986;93;21083;-73
2022/08/06 10:32:49;;;;;;;10.48;6.80;;;;;;;34.29;100.00;99812.42;1551598;90;21087;-72
2022/08/06 10:35:18;;;;;;;12.00;6.80;;;;;;;34.48;100.00;99821.84;1646524;84;21006;-73
2022/08/06 10:37:56;;;;;;;13.32;7.20;;;;;;;34.60;100.00;99832.59;1649241;87;21600;-71
2022/08/06 10:40:23;;;;;;;10.30;7.15;;;;;;;34.64;100.00;99831.91;1652825;87;21556;-73
2022/08/06 10:42:50;;;;;;;12.07;7.53;;;;;;;34.64;100.00;99838.94;1652726;87;21063;-72
2022/08/06 10:45:17;;;;;;;14.43;7.78;;;;;;;34.52;100.00;99834.84;1652776;87;21091;-73
2022/08/06 10:47:45;;;;;;;10.28;7.15;;;;;;;34.45;100.00;99826.72;1652554;87;21063;-71
2022/08/06 10:50:13;;;;;;;10.30;6.95;;;;;;;34.42;100.00;99830.45;1652728;87;21059;-73
2022/08/06 10:52:41;;;;;;;17.62;12.23;;;;;;;34.48;100.00;99821.25;1652665;87;21086;-71
2022/08/06 10:55:11;;;;;;;16.73;12.95;;;;;;;34.57;100.00;99823.42;1652840;87;21521;-72
2022/08/06 10:57:39;;;;;;;10.88;7.12;;;;;;;34.63;100.00;99826.05;1646175;87;21062;-72
2022/08/06 11:00:08;;;;;;;11.10;7.17;;;;;;;34.59;100.00;99835.73;1631596;88;21034;-72
2022/08/06 11:03:12;;;;;;;17.92;12.03;;;;;;;34.42;100.00;99839.42;1631537;88;21054;-72
2022/08/06 11:05:39;;;;;;;10.65;7.75;;;;;;;34.31;100.00;99824.13;1631573;87;21047;-72
2022/08/06 11:08:23;;;;;;;10.13;7.50;;;;;;;34.39;100.00;99819.88;1631561;88;21568;-73
2022/08/06 11:11:23;;;;;;;33.90;29.32;;;;;;;34.51;100.00;99808.51;1628508;88;21035;-71
2022/08/06 11:14:07;;;;;;;20.27;16.35;;;;;;;34.70;100.00;99817.95;1603557;89;21066;-72
2022/08/06 11:16:35;;;;;;;16.73;8.80;;;;;;;34.80;100.00;99814.75;1582499;90;21179;-73
2022/08/06 11:19:10;;;;;;;12.73;7.50;;;;;;;34.96;100.00;99820.02;1588370;90;21117;-74
2022/08/06 11:21:44;;;;;;;16.42;11.15;;;;;;;35.01;100.00;99827.43;1575925;91;21018;-71
2022/08/06 11:24:13;;;;;;;13.05;8.20;;;;;;;34.87;100.00;99824.05;1588544;90;21058;-71
2022/08/06 11:26:43;;;;;;;13.28;8.15;;;;;;;34.67;100.00;99819.98;1575931;91;21042;-73
2022/08/06 11:29:12;;;;;;;13.75;8.13;;;;;;;34.31;100.00;99805.30;1588547;90;21086;-72
2022/08/06 11:31:49;;;;;;;11.38;8.35;;;;;;;33.99;100.00;99809.51;1575867;91;21120;-72
2022/08/06 11:34:19;;;;;;;11.93;7.97;;;;;;;33.65;100.00;99800.80;1599817;88;21049;-70
2022/08/06 11:36:56;;;;;;;43.55;38.78;;;;;;;33.34;100.00;99805.77;1612011;88;21053;-72